Taschereau, Canada
Current Conditions -  °F | °C
As of 5:00 PM on Monday 24 Nov 2014 (Local Time) from CYUY Reporting Station
Overcast Overcast  
Wind Chill: 37°   Ceiling: 1200
Heat Index: 45°   Visibility: 15mi
Dew Point: 43°   Wind: 20mph
Humidity: 93%   Direction: 230°SW
Pressure: 28.91"   Gusts: 28mph
Location:  48.67°N, 78.7°W
Report Text: CYUY 242200Z 23017G24KT 15SM FEW006 OVC012 07/06 A2891 RMK SF1SC7 SLP797 DENSITY ALT 1400FT
Loading
Personal Weather Stations






























Interactive Weather Map New forecast layout! Learn more

10-Day Weather Forecast

Advertisements
Track Severe Weather on mobile